createdAt,value
2022-08-14T00:01:54.916Z,19.62
2022-08-14T00:04:57.527Z,19.82
2022-08-14T00:07:59.365Z,19.93
2022-08-14T00:11:02.294Z,19.77
2022-08-14T00:14:08.158Z,19.73
2022-08-14T00:17:13.303Z,19.81
2022-08-14T00:20:23.514Z,19.97
2022-08-14T00:23:26.790Z,19.88
2022-08-14T00:26:28.521Z,19.90
2022-08-14T00:29:33.229Z,19.56
2022-08-14T00:32:55.654Z,19.22
2022-08-14T00:36:37.098Z,18.98
2022-08-14T00:39:26.303Z,18.91
2022-08-14T00:42:55.104Z,18.76
2022-08-14T00:45:52.852Z,18.26
2022-08-14T00:48:54.736Z,17.92
2022-08-14T00:52:00.555Z,18.11
2022-08-14T00:55:03.547Z,18.67
2022-08-14T00:58:27.895Z,18.82
2022-08-14T01:01:36.089Z,19.07
2022-08-14T01:04:54.191Z,19.06
2022-08-14T01:07:58.807Z,19.19
2022-08-14T01:11:00.707Z,19.09
2022-08-14T01:14:25.250Z,19.24
2022-08-14T01:17:49.766Z,19.41
2022-08-14T01:21:13.630Z,19.57
2022-08-14T01:24:28.919Z,19.52
2022-08-14T01:27:56.668Z,19.50
2022-08-14T01:30:59.664Z,19.62
2022-08-14T01:35:17.298Z,19.52
2022-08-14T01:37:26.064Z,19.44
2022-08-14T01:40:37.214Z,19.33
2022-08-14T01:43:56.353Z,19.34
2022-08-14T01:47:01.264Z,19.37
2022-08-14T01:50:06.026Z,19.45
2022-08-14T01:53:08.377Z,19.31
2022-08-14T01:56:12.170Z,19.20
2022-08-14T01:59:22.209Z,19.24
2022-08-14T02:02:24.073Z,19.30
2022-08-14T02:05:35.602Z,19.20
2022-08-14T02:08:52.427Z,19.32
2022-08-14T02:11:56.648Z,19.22
2022-08-14T02:15:01.413Z,19.34
2022-08-14T02:18:04.427Z,19.45
2022-08-14T02:21:06.672Z,19.19
2022-08-14T02:24:39.776Z,18.58
2022-08-14T02:28:22.183Z,18.06
2022-08-14T02:30:52.929Z,17.87
2022-08-14T02:33:55.079Z,17.60
2022-08-14T02:37:06.235Z,17.29
2022-08-14T02:40:09.387Z,17.22
2022-08-14T02:43:11.733Z,17.63
2022-08-14T02:46:14.003Z,17.10
2022-08-14T02:49:26.799Z,16.98
2022-08-14T02:52:57.353Z,16.92
2022-08-14T02:56:03.091Z,16.84
2022-08-14T02:59:24.313Z,16.86
2022-08-14T03:02:55.934Z,17.30
2022-08-14T03:05:55.661Z,17.53
2022-08-14T03:08:59.127Z,17.46
2022-08-14T03:12:05.052Z,17.61
2022-08-14T03:15:09.073Z,17.78
2022-08-14T03:18:18.515Z,18.08
2022-08-14T03:21:23.334Z,17.65
2022-08-14T03:24:25.613Z,17.17
2022-08-14T03:27:35.538Z,17.08
2022-08-14T03:30:49.680Z,17.14
2022-08-14T03:33:56.907Z,16.89
2022-08-14T03:37:51.369Z,16.76
2022-08-14T03:40:25.331Z,17.14
2022-08-14T03:43:28.394Z,16.97
2022-08-14T03:46:39.061Z,16.82
2022-08-14T03:49:56.178Z,16.94
2022-08-14T03:53:01.962Z,16.92
2022-08-14T03:56:08.091Z,16.89
2022-08-14T03:59:17.824Z,16.88
2022-08-14T04:02:32.707Z,16.77
2022-08-14T04:05:43.058Z,16.68
2022-08-14T04:08:50.505Z,16.56
2022-08-14T04:11:52.416Z,16.61
2022-08-14T04:14:54.301Z,16.73
2022-08-14T04:17:56.462Z,16.91
2022-08-14T04:20:59.690Z,16.91
2022-08-14T04:24:03.198Z,16.97
2022-08-14T04:27:10.529Z,17.18
2022-08-14T04:30:12.749Z,17.26
2022-08-14T04:33:27.032Z,17.35
2022-08-14T04:36:32.532Z,17.50
2022-08-14T04:39:57.891Z,17.48
2022-08-14T04:43:19.128Z,17.54
2022-08-14T04:46:55.655Z,17.44
2022-08-14T04:49:56.912Z,17.51
2022-08-14T04:52:59.439Z,17.63
2022-08-14T04:56:05.839Z,17.62
2022-08-14T04:59:12.547Z,17.70
2022-08-14T05:02:16.619Z,17.82
2022-08-14T05:05:20.959Z,17.91
2022-08-14T05:08:31.789Z,17.98
2022-08-14T05:11:46.083Z,18.16
2022-08-14T05:18:17.237Z,18.13
2022-08-14T05:21:57.614Z,18.31
2022-08-14T05:24:58.158Z,18.62
2022-08-14T05:28:14.080Z,18.70
2022-08-14T05:31:20.775Z,19.12
2022-08-14T05:34:28.790Z,19.12
2022-08-14T05:37:33.563Z,19.40
2022-08-14T05:40:35.430Z,19.72
2022-08-14T05:43:41.285Z,20.21
2022-08-14T05:46:43.528Z,20.48
2022-08-14T05:49:48.728Z,20.89
2022-08-14T05:52:51.623Z,20.98
2022-08-14T05:55:55.326Z,21.13
2022-08-14T05:58:56.985Z,21.40
2022-08-14T06:02:02.396Z,21.66
2022-08-14T06:05:07.993Z,21.72
2022-08-14T06:08:31.143Z,21.88
2022-08-14T06:11:40.617Z,21.89
2022-08-14T06:14:45.109Z,22.02
2022-08-14T06:17:59.250Z,22.06
2022-08-14T06:21:03.780Z,22.08
2022-08-14T06:24:10.607Z,22.12
2022-08-14T06:27:20.749Z,22.49
2022-08-14T06:30:30.267Z,22.68
2022-08-14T06:35:11.182Z,22.61
2022-08-14T06:37:10.222Z,22.48
2022-08-14T06:40:25.643Z,22.85
2022-08-14T06:43:30.351Z,22.84
2022-08-14T06:46:37.285Z,23.20
2022-08-14T06:49:42.699Z,23.18
2022-08-14T06:52:50.351Z,23.30
2022-08-14T06:56:00.786Z,23.48
2022-08-14T06:59:03.453Z,23.59
2022-08-14T07:02:25.798Z,23.49
2022-08-14T07:05:55.639Z,23.40
2022-08-14T07:08:59.421Z,23.89
2022-08-14T07:12:01.768Z,23.92
2022-08-14T07:15:05.277Z,23.99
2022-08-14T07:18:09.301Z,24.12
2022-08-14T07:21:11.786Z,24.17
2022-08-14T07:24:21.486Z,24.37
2022-08-14T07:27:27.725Z,24.28
2022-08-14T07:30:36.051Z,24.55
2022-08-14T07:33:51.715Z,24.78
2022-08-14T07:37:00.877Z,24.89
2022-08-14T07:40:05.401Z,25.27
2022-08-14T07:43:14.642Z,25.33
2022-08-14T07:46:21.238Z,25.72
2022-08-14T07:49:32.748Z,26.61
2022-08-14T07:52:35.008Z,26.33
2022-08-14T07:55:37.669Z,27.09
2022-08-14T07:58:51.625Z,27.15
2022-08-14T08:01:57.393Z,28.31
2022-08-14T08:05:00.881Z,28.95
2022-08-14T08:08:04.458Z,29.83
2022-08-14T08:11:14.810Z,30.21
2022-08-14T08:14:18.161Z,30.44
2022-08-14T08:17:21.011Z,30.48
2022-08-14T08:20:27.511Z,30.35
2022-08-14T08:23:39.830Z,31.13
2022-08-14T08:26:42.257Z,31.64
2022-08-14T08:29:50.853Z,31.90
2022-08-14T08:32:54.978Z,32.22
2022-08-14T08:36:01.209Z,34.05
2022-08-14T08:39:17.743Z,33.64
2022-08-14T08:42:31.509Z,34.90
2022-08-14T08:45:40.159Z,35.84
2022-08-14T08:48:52.070Z,36.37
2022-08-14T08:52:04.676Z,33.62
2022-08-14T08:55:06.926Z,35.49
2022-08-14T08:58:20.167Z,35.82
2022-08-14T09:01:33.895Z,36.90
2022-08-14T09:04:45.742Z,37.54
2022-08-14T09:07:56.596Z,36.95
2022-08-14T09:10:59.815Z,37.94
2022-08-14T09:14:02.624Z,38.14
2022-08-14T09:17:07.327Z,36.50
2022-08-14T09:20:11.580Z,36.70
2022-08-14T09:23:16.824Z,36.94
2022-08-14T09:26:21.182Z,37.59
2022-08-14T09:29:23.823Z,39.04
2022-08-14T09:32:58.801Z,40.17
2022-08-14T09:36:14.670Z,40.51
2022-08-14T09:39:52.026Z,42.12
2022-08-14T09:43:20.081Z,43.20
2022-08-14T09:46:27.918Z,44.18
2022-08-14T09:49:34.075Z,42.23
2022-08-14T09:52:57.158Z,43.58
2022-08-14T09:56:00.338Z,43.87
2022-08-14T09:59:16.779Z,43.64
2022-08-14T10:02:24.520Z,43.57
2022-08-14T10:05:33.694Z,45.13
2022-08-14T10:08:50.878Z,44.76
2022-08-14T10:11:59.071Z,46.37
2022-08-14T10:15:02.031Z,45.52
2022-08-14T10:18:18.531Z,45.78
2022-08-14T10:21:20.735Z,45.77
2022-08-14T10:24:36.927Z,43.50
2022-08-14T10:27:40.006Z,41.60
2022-08-14T10:30:43.408Z,39.86
2022-08-14T10:33:56.927Z,37.92
2022-08-14T10:37:14.183Z,35.71
2022-08-14T10:40:38.432Z,33.80
2022-08-14T10:44:07.393Z,34.49
2022-08-14T10:47:40.161Z,34.19
2022-08-14T10:50:51.771Z,34.23
2022-08-14T10:53:58.528Z,32.76
2022-08-14T10:57:25.811Z,32.67
2022-08-14T11:00:35.272Z,32.48
2022-08-14T11:03:56.399Z,32.42
2022-08-14T11:06:59.369Z,32.40
2022-08-14T11:10:07.042Z,31.78
2022-08-14T11:13:09.760Z,32.27
2022-08-14T11:16:11.429Z,31.57
2022-08-14T11:19:15.910Z,31.90
2022-08-14T11:22:56.369Z,31.71
2022-08-14T11:25:53.159Z,32.11
2022-08-14T11:28:57.758Z,32.03
2022-08-14T11:32:02.387Z,32.34
2022-08-14T11:35:04.561Z,32.01
2022-08-14T11:38:08.988Z,31.77
2022-08-14T11:41:12.759Z,32.24
2022-08-14T11:44:17.750Z,32.10
2022-08-14T11:48:10.899Z,31.59
2022-08-14T11:51:00.338Z,31.08
2022-08-14T11:54:04.508Z,31.39
2022-08-14T11:57:15.332Z,31.77
2022-08-14T12:00:21.871Z,32.01
2022-08-14T12:03:51.508Z,31.78
2022-08-14T12:06:59.048Z,32.03
2022-08-14T12:10:00.981Z,32.04
2022-08-14T12:13:23.643Z,32.08
2022-08-14T12:16:29.293Z,31.93
2022-08-14T12:19:33.550Z,31.76
2022-08-14T12:22:42.290Z,31.57
2022-08-14T12:25:44.893Z,31.45
2022-08-14T12:29:14.473Z,31.67
2022-08-14T12:32:17.870Z,31.88
2022-08-14T12:35:19.724Z,32.26
2022-08-14T12:38:35.915Z,32.65
2022-08-14T12:41:38.349Z,32.83
2022-08-14T12:44:44.083Z,33.43
2022-08-14T12:47:46.930Z,33.86
2022-08-14T12:50:53.533Z,34.62
2022-08-14T12:53:59.608Z,36.47
2022-08-14T12:57:39.665Z,36.71
2022-08-14T13:01:16.232Z,39.78
2022-08-14T13:04:16.220Z,42.20
2022-08-14T13:07:18.193Z,40.38
2022-08-14T13:10:52.035Z,38.08
2022-08-14T13:13:47.445Z,34.48
2022-08-14T13:16:54.351Z,33.36
2022-08-14T13:20:03.063Z,32.73
2022-08-14T13:23:14.829Z,33.37
2022-08-14T13:26:19.700Z,35.62
2022-08-14T13:29:24.770Z,37.32
2022-08-14T13:32:28.771Z,40.68
2022-08-14T13:35:30.503Z,40.81
2022-08-14T13:38:33.940Z,40.22
2022-08-14T13:41:38.569Z,39.57
2022-08-14T13:44:42.981Z,41.85
2022-08-14T13:47:45.456Z,41.06
2022-08-14T13:50:55.352Z,38.94
2022-08-14T13:54:10.366Z,39.17
2022-08-14T13:57:17.714Z,40.71
2022-08-14T14:00:32.682Z,43.50
2022-08-14T14:03:39.497Z,43.98
2022-08-14T14:06:44.214Z,41.29
2022-08-14T14:09:52.429Z,38.03
2022-08-14T14:12:56.284Z,39.04
2022-08-14T14:16:03.895Z,40.00
2022-08-14T14:19:09.671Z,38.71
2022-08-14T14:23:00.717Z,35.96
2022-08-14T14:25:46.155Z,36.28
2022-08-14T14:28:56.382Z,38.24
2022-08-14T14:32:00.233Z,37.15
2022-08-14T14:35:02.786Z,35.50
2022-08-14T14:38:07.134Z,35.14
2022-08-14T14:41:10.009Z,34.67
2022-08-14T14:44:15.928Z,34.32
2022-08-14T14:47:22.795Z,34.24
2022-08-14T14:50:24.956Z,33.34
2022-08-14T14:53:28.350Z,33.07
2022-08-14T14:56:47.491Z,33.47
2022-08-14T14:59:53.180Z,33.59
2022-08-14T15:02:57.835Z,33.90
2022-08-14T15:06:02.835Z,33.88
2022-08-14T15:09:08.881Z,34.16
2022-08-14T15:12:34.162Z,33.99
2022-08-14T15:15:36.812Z,33.36
2022-08-14T15:18:46.432Z,32.74
2022-08-14T15:21:51.022Z,32.07
2022-08-14T15:24:53.298Z,31.68
2022-08-14T15:27:55.041Z,31.08
2022-08-14T15:30:58.913Z,30.76
2022-08-14T15:34:43.538Z,30.57
2022-08-14T15:37:36.501Z,30.41
2022-08-14T15:40:44.349Z,30.32
2022-08-14T15:43:54.286Z,30.17
2022-08-14T15:46:59.843Z,30.13
2022-08-14T15:50:09.622Z,30.07
2022-08-14T15:53:12.257Z,30.09
2022-08-14T15:56:42.261Z,30.18
2022-08-14T15:59:58.560Z,30.18
2022-08-14T16:03:01.318Z,30.21
2022-08-14T16:06:15.732Z,30.18
2022-08-14T16:09:21.375Z,30.11
2022-08-14T16:12:40.301Z,29.97
2022-08-14T16:15:45.376Z,29.85
2022-08-14T16:18:58.909Z,29.79
2022-08-14T16:22:59.268Z,29.79
2022-08-14T16:25:34.401Z,29.74
2022-08-14T16:28:37.323Z,29.64
2022-08-14T16:31:42.994Z,29.58
2022-08-14T16:38:29.359Z,29.44
2022-08-14T16:41:31.048Z,29.32
2022-08-14T16:44:39.160Z,29.32
2022-08-14T16:47:43.042Z,29.13
2022-08-14T16:50:45.738Z,29.06
2022-08-14T16:53:48.129Z,29.10
2022-08-14T16:56:50.067Z,29.11
2022-08-14T16:59:58.978Z,29.04
2022-08-14T17:03:08.646Z,28.74
2022-08-14T17:06:33.293Z,28.70
2022-08-14T17:09:48.993Z,28.80
2022-08-14T17:12:51.866Z,28.74
2022-08-14T17:16:24.285Z,28.58
2022-08-14T17:19:41.136Z,28.47
2022-08-14T17:22:47.436Z,28.42
2022-08-14T17:25:51.166Z,28.36
2022-08-14T17:29:21.141Z,28.31
2022-08-14T17:32:29.300Z,27.85
2022-08-14T17:35:59.029Z,27.53
2022-08-14T17:39:09.110Z,27.35
2022-08-14T17:42:13.846Z,27.20
2022-08-14T17:45:18.960Z,26.99
2022-08-14T17:49:16.301Z,26.98
2022-08-14T17:52:17.550Z,26.76
2022-08-14T17:56:01.592Z,26.56
2022-08-14T17:58:42.321Z,26.24
2022-08-14T18:01:46.006Z,26.06
2022-08-14T18:04:50.469Z,26.02
2022-08-14T18:08:31.553Z,26.15
2022-08-14T18:11:18.792Z,25.94
2022-08-14T18:14:32.110Z,25.58
2022-08-14T18:17:36.727Z,25.69
2022-08-14T18:21:43.105Z,25.53
2022-08-14T18:24:01.393Z,25.63
2022-08-14T18:27:16.435Z,25.31
2022-08-14T18:30:31.821Z,25.35
2022-08-14T18:33:51.920Z,25.34
2022-08-14T18:37:03.669Z,25.12
2022-08-14T18:40:16.195Z,24.95
2022-08-14T18:43:42.218Z,24.74
2022-08-14T18:47:15.947Z,25.05
2022-08-14T18:50:27.775Z,24.83
2022-08-14T18:53:52.835Z,24.68
2022-08-14T18:57:00.487Z,24.55
2022-08-14T19:00:33.781Z,24.42
2022-08-14T19:03:36.368Z,24.27
2022-08-14T19:06:55.873Z,24.52
2022-08-14T19:10:05.936Z,24.40
2022-08-14T19:13:13.006Z,24.26
2022-08-14T19:16:23.275Z,24.22
2022-08-14T19:19:38.570Z,24.11
2022-08-14T19:22:41.782Z,24.14
2022-08-14T19:25:57.259Z,24.01
2022-08-14T19:28:59.161Z,23.74
2022-08-14T19:32:04.466Z,23.80
2022-08-14T19:35:49.982Z,23.35
2022-08-14T19:38:57.316Z,23.26
2022-08-14T19:41:59.852Z,23.45
2022-08-14T19:45:02.649Z,23.47
2022-08-14T19:48:15.796Z,23.30
2022-08-14T19:51:18.326Z,23.28
2022-08-14T19:54:32.099Z,23.36
2022-08-14T19:57:36.644Z,23.17
2022-08-14T20:00:52.504Z,23.13
2022-08-14T20:03:59.937Z,22.81
2022-08-14T20:07:06.400Z,23.00
2022-08-14T20:11:12.582Z,23.20
2022-08-14T20:13:56.157Z,22.83
2022-08-14T20:17:05.511Z,22.47
2022-08-14T20:20:20.978Z,22.49
2022-08-14T20:23:38.651Z,22.55
2022-08-14T20:26:43.322Z,22.77
2022-08-14T20:30:28.812Z,22.95
2022-08-14T20:33:29.284Z,22.59
2022-08-14T20:36:49.749Z,22.67
2022-08-14T20:39:54.169Z,22.81
2022-08-14T20:43:16.326Z,22.90
2022-08-14T20:46:31.216Z,22.97
2022-08-14T20:49:34.522Z,22.76
2022-08-14T20:52:37.648Z,22.51
2022-08-14T20:55:45.307Z,22.62
2022-08-14T20:58:48.894Z,22.52
2022-08-14T21:02:28.649Z,22.42
2022-08-14T21:05:33.538Z,22.46
2022-08-14T21:08:37.313Z,22.26
2022-08-14T21:11:40.238Z,22.43
2022-08-14T21:14:51.652Z,22.36
2022-08-14T21:17:56.152Z,22.27
2022-08-14T21:21:00.337Z,22.13
2022-08-14T21:24:08.032Z,22.07
2022-08-14T21:27:20.248Z,22.03
2022-08-14T21:30:46.817Z,22.12
2022-08-14T21:33:47.116Z,21.99
2022-08-14T21:36:58.410Z,22.03
2022-08-14T21:40:00.732Z,22.00
2022-08-14T21:43:02.405Z,21.90
2022-08-14T21:46:04.251Z,21.90
2022-08-14T21:49:12.417Z,21.91
2022-08-14T21:52:51.079Z,21.83
2022-08-14T21:55:42.152Z,21.61
2022-08-14T21:58:55.973Z,21.39
2022-08-14T22:02:03.461Z,21.39
2022-08-14T22:05:06.011Z,21.26
2022-08-14T22:08:14.195Z,21.20
2022-08-14T22:11:16.268Z,21.23
2022-08-14T22:14:25.949Z,21.21
2022-08-14T22:17:44.151Z,21.75
2022-08-14T22:20:46.571Z,21.68
2022-08-14T22:23:48.839Z,21.20
2022-08-14T22:26:54.869Z,20.74
2022-08-14T22:29:58.429Z,20.61
2022-08-14T22:33:00.862Z,20.99
2022-08-14T22:36:25.239Z,21.15
2022-08-14T22:40:16.701Z,21.04
2022-08-14T22:43:00.036Z,21.57
2022-08-14T22:46:14.407Z,20.85
2022-08-14T22:50:31.702Z,20.51
2022-08-14T22:52:49.597Z,20.79
2022-08-14T22:55:52.518Z,21.28
2022-08-14T22:58:57.462Z,20.89
2022-08-14T23:02:29.965Z,20.98
2022-08-14T23:05:40.244Z,21.22
2022-08-14T23:09:00.912Z,20.85
2022-08-14T23:12:28.724Z,20.40
2022-08-14T23:15:30.745Z,20.22
2022-08-14T23:18:32.870Z,20.25
2022-08-14T23:21:34.932Z,20.32
2022-08-14T23:24:42.706Z,20.29
2022-08-14T23:28:02.962Z,20.57
2022-08-14T23:31:08.160Z,20.82
2022-08-14T23:34:20.630Z,20.29
2022-08-14T23:37:27.186Z,20.04
2022-08-14T23:40:31.154Z,20.11
2022-08-14T23:43:34.649Z,19.85
2022-08-14T23:46:36.392Z,19.68
2022-08-14T23:50:00.127Z,19.48
2022-08-14T23:53:14.382Z,19.35
2022-08-14T23:56:32.629Z,19.45
2022-08-14T23:59:35.769Z,19.23
